sensor_id;sensor_type;location;lat;lon;timestamp;pressure;altitude;pressure_sealevel;temperature;humidity
57562;BME280;43397;51.530;5.974;2022-09-09T00:00:13;100420.22;;;14.93;100.00
57562;BME280;43397;51.530;5.974;2022-09-09T00:02:42;100420.72;;;14.77;100.00
57562;BME280;43397;51.530;5.974;2022-09-09T00:05:18;100422.78;;;14.69;100.00
57562;BME280;43397;51.530;5.974;2022-09-09T00:07:49;100420.63;;;14.80;100.00
57562;BME280;43397;51.530;5.974;2022-09-09T00:10:22;100429.19;;;14.92;100.00
57562;BME280;43397;51.530;5.974;2022-09-09T00:12:57;100421.84;;;14.98;100.00
57562;BME280;43397;51.530;5.974;2022-09-09T00:15:27;100414.19;;;14.86;100.00
57562;BME280;43397;51.530;5.974;2022-09-09T00:18:01;100418.53;;;14.90;100.00
57562;BME280;43397;51.530;5.974;2022-09-09T00:20:32;100416.44;;;14.72;100.00
57562;BME280;43397;51.530;5.974;2022-09-09T00:23:09;100410.84;;;14.79;100.00
57562;BME280;43397;51.530;5.974;2022-09-09T00:25:41;100410.53;;;14.62;100.00
57562;BME280;43397;51.530;5.974;2022-09-09T00:28:13;100410.06;;;14.76;100.00
57562;BME280;43397;51.530;5.974;2022-09-09T00:30:42;100409.19;;;14.75;100.00
57562;BME280;43397;51.530;5.974;2022-09-09T00:33:11;100407.88;;;14.60;100.00
57562;BME280;43397;51.530;5.974;2022-09-09T00:35:40;100405.19;;;14.62;100.00
57562;BME280;43397;51.530;5.974;2022-09-09T00:38:12;100407.19;;;14.54;100.00
57562;BME280;43397;51.530;5.974;2022-09-09T00:40:44;100405.69;;;14.73;100.00
57562;BME280;43397;51.530;5.974;2022-09-09T00:43:29;100404.91;;;14.70;100.00
57562;BME280;43397;51.530;5.974;2022-09-09T00:46:10;100406.97;;;14.90;100.00
57562;BME280;43397;51.530;5.974;2022-09-09T00:48:46;100400.47;;;14.70;100.00
57562;BME280;43397;51.530;5.974;2022-09-09T00:51:16;100403.88;;;14.74;100.00
57562;BME280;43397;51.530;5.974;2022-09-09T00:54:02;100403.06;;;14.72;100.00
57562;BME280;43397;51.530;5.974;2022-09-09T00:56:37;100411.84;;;14.77;100.00
57562;BME280;43397;51.530;5.974;2022-09-09T00:59:14;100410.97;;;14.76;100.00
57562;BME280;43397;51.530;5.974;2022-09-09T01:01:45;100405.53;;;14.78;100.00
57562;BME280;43397;51.530;5.974;2022-09-09T01:04:14;100407.47;;;14.74;100.00
57562;BME280;43397;51.530;5.974;2022-09-09T01:06:43;100406.09;;;14.61;100.00
57562;BME280;43397;51.530;5.974;2022-09-09T01:09:17;100405.50;;;14.79;100.00
57562;BME280;43397;51.530;5.974;2022-09-09T01:11:52;100405.38;;;14.82;100.00
57562;BME280;43397;51.530;5.974;2022-09-09T01:14:40;100405.88;;;14.67;100.00
57562;BME280;43397;51.530;5.974;2022-09-09T01:17:12;100395.34;;;14.63;100.00
57562;BME280;43397;51.530;5.974;2022-09-09T01:19:47;100402.47;;;14.64;100.00
57562;BME280;43397;51.530;5.974;2022-09-09T01:22:24;100396.59;;;14.79;100.00
57562;BME280;43397;51.530;5.974;2022-09-09T01:25:15;100395.88;;;14.74;100.00
57562;BME280;43397;51.530;5.974;2022-09-09T01:27:46;100388.31;;;14.60;100.00
57562;BME280;43397;51.530;5.974;2022-09-09T01:30:14;100389.75;;;14.70;100.00
57562;BME280;43397;51.530;5.974;2022-09-09T01:32:43;100395.19;;;14.67;100.00
57562;BME280;43397;51.530;5.974;2022-09-09T01:35:15;100395.03;;;14.72;100.00
57562;BME280;43397;51.530;5.974;2022-09-09T01:37:46;100392.38;;;14.72;100.00
57562;BME280;43397;51.530;5.974;2022-09-09T01:40:11;100390.94;;;14.62;100.00
57562;BME280;43397;51.530;5.974;2022-09-09T01:42:37;100380.13;;;14.65;100.00
57562;BME280;43397;51.530;5.974;2022-09-09T01:45:06;100384.69;;;14.61;100.00
57562;BME280;43397;51.530;5.974;2022-09-09T01:47:32;100383.66;;;14.65;100.00
57562;BME280;43397;51.530;5.974;2022-09-09T01:49:58;100384.59;;;14.64;100.00
57562;BME280;43397;51.530;5.974;2022-09-09T01:52:24;100381.06;;;14.64;100.00
57562;BME280;43397;51.530;5.974;2022-09-09T01:54:50;100388.50;;;14.52;100.00
57562;BME280;43397;51.530;5.974;2022-09-09T01:57:21;100381.78;;;14.39;100.00
57562;BME280;43397;51.530;5.974;2022-09-09T01:59:59;100390.03;;;14.33;100.00
57562;BME280;43397;51.530;5.974;2022-09-09T02:02:30;100394.25;;;14.40;100.00
57562;BME280;43397;51.530;5.974;2022-09-09T02:05:06;100390.31;;;14.52;100.00
57562;BME280;43397;51.530;5.974;2022-09-09T02:07:39;100395.38;;;14.33;100.00
57562;BME280;43397;51.530;5.974;2022-09-09T02:10:10;100388.66;;;14.48;100.00
57562;BME280;43397;51.530;5.974;2022-09-09T02:12:37;100396.31;;;14.60;100.00
57562;BME280;43397;51.530;5.974;2022-09-09T02:15:08;100382.28;;;14.52;100.00
57562;BME280;43397;51.530;5.974;2022-09-09T02:17:41;100381.38;;;14.53;100.00
57562;BME280;43397;51.530;5.974;2022-09-09T02:20:09;100374.81;;;14.63;100.00
57562;BME280;43397;51.530;5.974;2022-09-09T02:22:38;100370.25;;;14.67;100.00
57562;BME280;43397;51.530;5.974;2022-09-09T02:25:07;100373.22;;;14.57;100.00
57562;BME280;43397;51.530;5.974;2022-09-09T02:27:34;100369.44;;;14.65;100.00
57562;BME280;43397;51.530;5.974;2022-09-09T02:30:01;100368.25;;;14.73;100.00
57562;BME280;43397;51.530;5.974;2022-09-09T02:32:28;100374.88;;;14.62;100.00
57562;BME280;43397;51.530;5.974;2022-09-09T02:34:59;100355.19;;;14.64;100.00
57562;BME280;43397;51.530;5.974;2022-09-09T02:37:31;100363.28;;;14.61;100.00
57562;BME280;43397;51.530;5.974;2022-09-09T02:39:59;100368.75;;;14.58;100.00
57562;BME280;43397;51.530;5.974;2022-09-09T02:42:25;100365.34;;;14.53;100.00
57562;BME280;43397;51.530;5.974;2022-09-09T02:44:50;100355.66;;;14.49;100.00
57562;BME280;43397;51.530;5.974;2022-09-09T02:47:31;100372.06;;;14.36;100.00
57562;BME280;43397;51.530;5.974;2022-09-09T02:50:08;100362.38;;;14.34;100.00
57562;BME280;43397;51.530;5.974;2022-09-09T02:52:44;100362.59;;;14.54;100.00
57562;BME280;43397;51.530;5.974;2022-09-09T02:55:17;100359.38;;;14.43;100.00
57562;BME280;43397;51.530;5.974;2022-09-09T02:57:47;100362.81;;;14.48;100.00
57562;BME280;43397;51.530;5.974;2022-09-09T03:00:14;100366.59;;;14.41;100.00
57562;BME280;43397;51.530;5.974;2022-09-09T03:02:39;100368.09;;;14.50;100.00
57562;BME280;43397;51.530;5.974;2022-09-09T03:05:07;100363.69;;;14.49;100.00
57562;BME280;43397;51.530;5.974;2022-09-09T03:07:33;100368.09;;;14.50;100.00
57562;BME280;43397;51.530;5.974;2022-09-09T03:09:59;100367.94;;;14.54;100.00
57562;BME280;43397;51.530;5.974;2022-09-09T03:12:25;100371.69;;;14.49;100.00
57562;BME280;43397;51.530;5.974;2022-09-09T03:14:51;100366.94;;;14.58;100.00
57562;BME280;43397;51.530;5.974;2022-09-09T03:17:16;100366.91;;;14.60;100.00
57562;BME280;43397;51.530;5.974;2022-09-09T03:19:42;100366.25;;;14.52;100.00
57562;BME280;43397;51.530;5.974;2022-09-09T03:22:10;100371.78;;;14.46;100.00
57562;BME280;43397;51.530;5.974;2022-09-09T03:24:36;100368.63;;;14.61;100.00
57562;BME280;43397;51.530;5.974;2022-09-09T03:27:02;100364.94;;;14.65;100.00
57562;BME280;43397;51.530;5.974;2022-09-09T03:29:28;100359.41;;;14.71;100.00
57562;BME280;43397;51.530;5.974;2022-09-09T03:31:54;100360.53;;;14.64;100.00
57562;BME280;43397;51.530;5.974;2022-09-09T03:34:20;100356.56;;;15.02;100.00
57562;BME280;43397;51.530;5.974;2022-09-09T03:36:45;100359.25;;;15.02;100.00
57562;BME280;43397;51.530;5.974;2022-09-09T03:39:12;100353.56;;;15.37;100.00
57562;BME280;43397;51.530;5.974;2022-09-09T03:41:38;100360.34;;;15.72;100.00
57562;BME280;43397;51.530;5.974;2022-09-09T03:44:04;100360.88;;;15.82;100.00
57562;BME280;43397;51.530;5.974;2022-09-09T03:46:30;100361.16;;;15.49;100.00
57562;BME280;43397;51.530;5.974;2022-09-09T03:48:55;100368.38;;;15.22;100.00
57562;BME280;43397;51.530;5.974;2022-09-09T03:51:21;100368.81;;;15.10;100.00
57562;BME280;43397;51.530;5.974;2022-09-09T03:53:47;100368.50;;;14.92;100.00
57562;BME280;43397;51.530;5.974;2022-09-09T03:56:14;100369.69;;;14.84;100.00
57562;BME280;43397;51.530;5.974;2022-09-09T03:58:40;100367.34;;;14.74;100.00
57562;BME280;43397;51.530;5.974;2022-09-09T04:01:09;100368.09;;;14.78;100.00
57562;BME280;43397;51.530;5.974;2022-09-09T04:03:35;100371.13;;;14.67;100.00
57562;BME280;43397;51.530;5.974;2022-09-09T04:06:02;100370.53;;;14.59;100.00
57562;BME280;43397;51.530;5.974;2022-09-09T04:08:29;100373.75;;;14.69;100.00
57562;BME280;43397;51.530;5.974;2022-09-09T04:10:55;100375.59;;;14.67;100.00
57562;BME280;43397;51.530;5.974;2022-09-09T04:13:23;100371.94;;;14.69;100.00
57562;BME280;43397;51.530;5.974;2022-09-09T04:15:54;100375.91;;;14.84;100.00
57562;BME280;43397;51.530;5.974;2022-09-09T04:18:20;100369.41;;;14.91;100.00
57562;BME280;43397;51.530;5.974;2022-09-09T04:20:47;100357.16;;;15.11;100.00
57562;BME280;43397;51.530;5.974;2022-09-09T04:23:13;100360.22;;;15.00;100.00
57562;BME280;43397;51.530;5.974;2022-09-09T04:25:43;100360.31;;;14.97;100.00
57562;BME280;43397;51.530;5.974;2022-09-09T04:28:09;100353.13;;;14.99;100.00
57562;BME280;43397;51.530;5.974;2022-09-09T04:30:36;100359.25;;;15.02;100.00
57562;BME280;43397;51.530;5.974;2022-09-09T04:33:02;100355.63;;;15.04;100.00
57562;BME280;43397;51.530;5.974;2022-09-09T04:35:28;100353.00;;;15.02;100.00
57562;BME280;43397;51.530;5.974;2022-09-09T04:37:54;100349.56;;;15.23;100.00
57562;BME280;43397;51.530;5.974;2022-09-09T04:40:19;100351.50;;;15.20;100.00
57562;BME280;43397;51.530;5.974;2022-09-09T04:42:45;100358.47;;;15.24;100.00
57562;BME280;43397;51.530;5.974;2022-09-09T04:45:11;100351.25;;;15.26;100.00
57562;BME280;43397;51.530;5.974;2022-09-09T04:47:38;100345.25;;;15.19;100.00
57562;BME280;43397;51.530;5.974;2022-09-09T04:50:05;100350.53;;;15.22;100.00
57562;BME280;43397;51.530;5.974;2022-09-09T04:52:31;100342.50;;;15.22;100.00
57562;BME280;43397;51.530;5.974;2022-09-09T04:54:57;100342.38;;;15.26;100.00
57562;BME280;43397;51.530;5.974;2022-09-09T04:57:23;100347.72;;;15.26;100.00
57562;BME280;43397;51.530;5.974;2022-09-09T04:59:48;100351.25;;;15.26;100.00
57562;BME280;43397;51.530;5.974;2022-09-09T05:02:14;100346.03;;;15.23;100.00
57562;BME280;43397;51.530;5.974;2022-09-09T05:04:41;100344.25;;;15.22;100.00
57562;BME280;43397;51.530;5.974;2022-09-09T05:07:07;100332.34;;;15.31;100.00
57562;BME280;43397;51.530;5.974;2022-09-09T05:09:33;100331.41;;;15.33;100.00
57562;BME280;43397;51.530;5.974;2022-09-09T05:11:59;100339.44;;;15.33;100.00
57562;BME280;43397;51.530;5.974;2022-09-09T05:14:25;100331.59;;;15.27;100.00
57562;BME280;43397;51.530;5.974;2022-09-09T05:16:51;100332.44;;;15.29;100.00
57562;BME280;43397;51.530;5.974;2022-09-09T05:19:17;100337.41;;;15.40;100.00
57562;BME280;43397;51.530;5.974;2022-09-09T05:21:44;100335.94;;;15.31;100.00
57562;BME280;43397;51.530;5.974;2022-09-09T05:24:10;100341.16;;;15.34;100.00
57562;BME280;43397;51.530;5.974;2022-09-09T05:26:36;100335.28;;;15.25;100.00
57562;BME280;43397;51.530;5.974;2022-09-09T05:29:01;100332.47;;;15.28;100.00
57562;BME280;43397;51.530;5.974;2022-09-09T05:31:29;100330.19;;;15.42;100.00
57562;BME280;43397;51.530;5.974;2022-09-09T05:33:56;100334.63;;;15.41;100.00
57562;BME280;43397;51.530;5.974;2022-09-09T05:36:22;100339.44;;;15.33;100.00
57562;BME280;43397;51.530;5.974;2022-09-09T05:38:49;100338.78;;;15.50;100.00
57562;BME280;43397;51.530;5.974;2022-09-09T05:41:16;100341.06;;;15.37;100.00
57562;BME280;43397;51.530;5.974;2022-09-09T05:43:42;100334.59;;;15.43;100.00
57562;BME280;43397;51.530;5.974;2022-09-09T05:46:10;100334.81;;;15.37;100.00
57562;BME280;43397;51.530;5.974;2022-09-09T05:48:38;100337.56;;;15.35;100.00
57562;BME280;43397;51.530;5.974;2022-09-09T05:51:06;100344.78;;;15.33;100.00
57562;BME280;43397;51.530;5.974;2022-09-09T05:53:32;100341.53;;;15.49;100.00
57562;BME280;43397;51.530;5.974;2022-09-09T05:56:01;100348.75;;;15.47;100.00
57562;BME280;43397;51.530;5.974;2022-09-09T05:58:27;100352.53;;;15.41;100.00
57562;BME280;43397;51.530;5.974;2022-09-09T06:00:53;100347.94;;;15.45;100.00
57562;BME280;43397;51.530;5.974;2022-09-09T06:03:25;100351.69;;;15.39;100.00
57562;BME280;43397;51.530;5.974;2022-09-09T06:05:57;100343.66;;;15.39;100.00
57562;BME280;43397;51.530;5.974;2022-09-09T06:08:23;100351.34;;;15.48;100.00
57562;BME280;43397;51.530;5.974;2022-09-09T06:10:49;100352.44;;;15.44;100.00
57562;BME280;43397;51.530;5.974;2022-09-09T06:13:16;100353.38;;;15.41;100.00
57562;BME280;43397;51.530;5.974;2022-09-09T06:15:49;100353.34;;;15.43;100.00
57562;BME280;43397;51.530;5.974;2022-09-09T06:18:15;100357.41;;;15.55;100.00
57562;BME280;43397;51.530;5.974;2022-09-09T06:20:41;100355.75;;;15.51;100.00
57562;BME280;43397;51.530;5.974;2022-09-09T06:23:06;100361.16;;;15.49;100.00
57562;BME280;43397;51.530;5.974;2022-09-09T06:25:33;100356.66;;;15.50;100.00
57562;BME280;43397;51.530;5.974;2022-09-09T06:27:58;100363.63;;;15.55;100.00
57562;BME280;43397;51.530;5.974;2022-09-09T06:30:25;100361.94;;;15.53;100.00
57562;BME280;43397;51.530;5.974;2022-09-09T06:32:51;100360.28;;;15.49;100.00
57562;BME280;43397;51.530;5.974;2022-09-09T06:35:17;100351.25;;;15.51;100.00
57562;BME280;43397;51.530;5.974;2022-09-09T06:37:44;100357.41;;;15.55;100.00
57562;BME280;43397;51.530;5.974;2022-09-09T06:40:10;100362.50;;;15.61;100.00
57562;BME280;43397;51.530;5.974;2022-09-09T06:42:36;100357.91;;;15.90;100.00
57562;BME280;43397;51.530;5.974;2022-09-09T06:45:02;100358.59;;;15.71;100.00
57562;BME280;43397;51.530;5.974;2022-09-09T06:47:29;100357.59;;;15.97;100.00
57562;BME280;43397;51.530;5.974;2022-09-09T06:49:55;100365.59;;;15.99;100.00
57562;BME280;43397;51.530;5.974;2022-09-09T06:52:21;100359.47;;;15.95;100.00
57562;BME280;43397;51.530;5.974;2022-09-09T06:54:47;100356.56;;;16.01;100.00
57562;BME280;43397;51.530;5.974;2022-09-09T06:57:12;100357.50;;;16.00;100.00
57562;BME280;43397;51.530;5.974;2022-09-09T06:59:38;100348.88;;;15.92;100.00
57562;BME280;43397;51.530;5.974;2022-09-09T07:02:04;100349.69;;;15.94;100.00
57562;BME280;43397;51.530;5.974;2022-09-09T07:04:31;100359.91;;;16.07;100.00
57562;BME280;43397;51.530;5.974;2022-09-09T07:06:57;100355.28;;;16.12;100.00
57562;BME280;43397;51.530;5.974;2022-09-09T07:09:23;100363.19;;;16.15;100.00
57562;BME280;43397;51.530;5.974;2022-09-09T07:11:50;100357.81;;;16.15;100.00
57562;BME280;43397;51.530;5.974;2022-09-09T07:14:16;100352.34;;;16.18;100.00
57562;BME280;43397;51.530;5.974;2022-09-09T07:16:42;100356.59;;;16.23;100.00
57562;BME280;43397;51.530;5.974;2022-09-09T07:19:09;100351.59;;;16.36;100.00
57562;BME280;43397;51.530;5.974;2022-09-09T07:21:37;100358.78;;;16.36;100.00
57562;BME280;43397;51.530;5.974;2022-09-09T07:24:03;100358.47;;;16.43;100.00
57562;BME280;43397;51.530;5.974;2022-09-09T07:26:30;100354.66;;;16.49;100.00
57562;BME280;43397;51.530;5.974;2022-09-09T07:28:56;100357.84;;;16.37;100.00
57562;BME280;43397;51.530;5.974;2022-09-09T07:31:24;100355.88;;;16.42;100.00
57562;BME280;43397;51.530;5.974;2022-09-09T07:33:49;100356.22;;;16.55;100.00
57562;BME280;43397;51.530;5.974;2022-09-09T07:36:17;100349.72;;;16.60;100.00
57562;BME280;43397;51.530;5.974;2022-09-09T07:38:46;100352.94;;;16.70;100.00
57562;BME280;43397;51.530;5.974;2022-09-09T07:41:14;100368.22;;;16.68;100.00
57562;BME280;43397;51.530;5.974;2022-09-09T07:43:41;100356.13;;;16.80;100.00
57562;BME280;43397;51.530;5.974;2022-09-09T07:46:08;100353.66;;;16.96;100.00
57562;BME280;43397;51.530;5.974;2022-09-09T07:48:35;100356.69;;;17.09;100.00
57562;BME280;43397;51.530;5.974;2022-09-09T07:51:06;100349.69;;;17.04;100.00
57562;BME280;43397;51.530;5.974;2022-09-09T07:53:33;100357.50;;;17.11;100.00
57562;BME280;43397;51.530;5.974;2022-09-09T07:56:04;100346.28;;;17.21;100.00
57562;BME280;43397;51.530;5.974;2022-09-09T07:58:30;100351.63;;;17.42;100.00
57562;BME280;43397;51.530;5.974;2022-09-09T08:00:56;100365.22;;;17.39;100.00
57562;BME280;43397;51.530;5.974;2022-09-09T08:03:22;100363.59;;;17.35;100.00
57562;BME280;43397;51.530;5.974;2022-09-09T08:05:48;100366.28;;;17.35;100.00
57562;BME280;43397;51.530;5.974;2022-09-09T08:08:14;100376.63;;;17.44;100.00
57562;BME280;43397;51.530;5.974;2022-09-09T08:10:39;100372.38;;;17.59;100.00
57562;BME280;43397;51.530;5.974;2022-09-09T08:13:08;100379.03;;;17.50;100.00
57562;BME280;43397;51.530;5.974;2022-09-09T08:15:34;100373.47;;;17.34;100.00
57562;BME280;43397;51.530;5.974;2022-09-09T08:17:59;100386.97;;;17.33;100.00
57562;BME280;43397;51.530;5.974;2022-09-09T08:20:25;100377.28;;;17.28;100.00
57562;BME280;43397;51.530;5.974;2022-09-09T08:22:51;100385.16;;;17.13;100.00
57562;BME280;43397;51.530;5.974;2022-09-09T08:25:17;100386.72;;;17.18;100.00
57562;BME280;43397;51.530;5.974;2022-09-09T08:27:43;100384.28;;;17.12;100.00
57562;BME280;43397;51.530;5.974;2022-09-09T08:30:11;100388.69;;;17.13;100.00
57562;BME280;43397;51.530;5.974;2022-09-09T08:32:37;100390.47;;;17.14;100.00
57562;BME280;43397;51.530;5.974;2022-09-09T08:35:03;100385.22;;;17.11;100.00
57562;BME280;43397;51.530;5.974;2022-09-09T08:37:29;100390.13;;;17.01;100.00
57562;BME280;43397;51.530;5.974;2022-09-09T08:39:56;100392.53;;;17.08;100.00
57562;BME280;43397;51.530;5.974;2022-09-09T08:42:33;100394.56;;;17.23;100.00
57562;BME280;43397;51.530;5.974;2022-09-09T08:45:12;100396.09;;;17.28;100.00
57562;BME280;43397;51.530;5.974;2022-09-09T08:47:42;100391.22;;;17.38;100.00
57562;BME280;43397;51.530;5.974;2022-09-09T08:50:21;100392.81;;;17.63;100.00
57562;BME280;43397;51.530;5.974;2022-09-09T08:52:54;100391.88;;;17.64;100.00
57562;BME280;43397;51.530;5.974;2022-09-09T08:55:25;100391.41;;;17.54;100.00
57562;BME280;43397;51.530;5.974;2022-09-09T08:57:56;100398.59;;;17.54;100.00
57562;BME280;43397;51.530;5.974;2022-09-09T09:00:29;100397.56;;;17.56;100.00
57562;BME280;43397;51.530;5.974;2022-09-09T09:03:05;100400.81;;;17.44;100.00
57562;BME280;43397;51.530;5.974;2022-09-09T09:05:36;100404.50;;;17.41;100.00
57562;BME280;43397;51.530;5.974;2022-09-09T09:08:10;100398.19;;;17.42;100.00
57562;BME280;43397;51.530;5.974;2022-09-09T09:10:45;100402.91;;;17.58;100.00
57562;BME280;43397;51.530;5.974;2022-09-09T09:13:13;100409.41;;;17.73;100.00
57562;BME280;43397;51.530;5.974;2022-09-09T09:15:42;100393.69;;;17.84;99.97
57562;BME280;43397;51.530;5.974;2022-09-09T09:18:10;100402.34;;;17.91;99.00
57562;BME280;43397;51.530;5.974;2022-09-09T09:20:44;100406.28;;;18.02;99.27
57562;BME280;43397;51.530;5.974;2022-09-09T09:23:16;100401.56;;;18.07;99.74
57562;BME280;43397;51.530;5.974;2022-09-09T09:25:45;100401.41;;;18.11;99.07
57562;BME280;43397;51.530;5.974;2022-09-09T09:28:15;100406.38;;;18.01;99.22
57562;BME280;43397;51.530;5.974;2022-09-09T09:30:48;100408.81;;;17.86;99.46
57562;BME280;43397;51.530;5.974;2022-09-09T09:33:18;100404.44;;;17.84;100.00
57562;BME280;43397;51.530;5.974;2022-09-09T09:35:46;100411.66;;;17.83;98.82
57562;BME280;43397;51.530;5.974;2022-09-09T09:38:17;100403.00;;;17.75;99.85
57562;BME280;43397;51.530;5.974;2022-09-09T09:40:49;100410.81;;;17.61;100.00
57562;BME280;43397;51.530;5.974;2022-09-09T09:43:20;100413.50;;;17.61;100.00
57562;BME280;43397;51.530;5.974;2022-09-09T09:45:48;100414.72;;;17.54;100.00
57562;BME280;43397;51.530;5.974;2022-09-09T09:48:14;100407.72;;;17.50;100.00
57562;BME280;43397;51.530;5.974;2022-09-09T09:50:47;100396.84;;;17.53;100.00
57562;BME280;43397;51.530;5.974;2022-09-09T09:53:20;100410.56;;;17.46;100.00
57562;BME280;43397;51.530;5.974;2022-09-09T09:55:51;100401.94;;;17.59;98.89
57562;BME280;43397;51.530;5.974;2022-09-09T09:58:18;100397.72;;;17.53;100.00
57562;BME280;43397;51.530;5.974;2022-09-09T10:00:49;100400.06;;;17.61;100.00
57562;BME280;43397;51.530;5.974;2022-09-09T10:03:22;100399.53;;;17.73;100.00
57562;BME280;43397;51.530;5.974;2022-09-09T10:05:48;100408.25;;;17.78;100.00
57562;BME280;43397;51.530;5.974;2022-09-09T10:08:15;100403.06;;;17.74;99.07
57562;BME280;43397;51.530;5.974;2022-09-09T10:11:09;100393.41;;;17.69;98.42
57562;BME280;43397;51.530;5.974;2022-09-09T10:13:44;100405.09;;;17.68;98.89
57562;BME280;43397;51.530;5.974;2022-09-09T10:16:24;100398.06;;;17.66;98.34
57562;BME280;43397;51.530;5.974;2022-09-09T10:18:59;100400.81;;;17.64;98.50
57562;BME280;43397;51.530;5.974;2022-09-09T10:21:42;100395.97;;;17.73;98.08
57562;BME280;43397;51.530;5.974;2022-09-09T10:24:41;100402.31;;;17.70;97.65
57562;BME280;43397;51.530;5.974;2022-09-09T10:27:19;100409.06;;;17.60;98.70
57562;BME280;43397;51.530;5.974;2022-09-09T10:29:57;100407.19;;;17.62;99.97
57562;BME280;43397;51.530;5.974;2022-09-09T10:32:36;100414.44;;;17.60;99.19
57562;BME280;43397;51.530;5.974;2022-09-09T10:35:09;100411.19;;;17.72;100.00
57562;BME280;43397;51.530;5.974;2022-09-09T10:37:44;100409.34;;;17.95;98.97
57562;BME280;43397;51.530;5.974;2022-09-09T10:40:32;100407.88;;;18.06;95.74
57562;BME280;43397;51.530;5.974;2022-09-09T10:43:05;100403.88;;;18.15;96.07
57562;BME280;43397;51.530;5.974;2022-09-09T10:45:44;100401.06;;;18.18;96.62
57562;BME280;43397;51.530;5.974;2022-09-09T10:48:26;100390.66;;;18.11;97.67
57562;BME280;43397;51.530;5.974;2022-09-09T10:51:06;100400.03;;;18.02;96.23
57562;BME280;43397;51.530;5.974;2022-09-09T10:53:36;100397.63;;;17.96;96.91
57562;BME280;43397;51.530;5.974;2022-09-09T10:56:07;100402.06;;;17.97;97.74
57562;BME280;43397;51.530;5.974;2022-09-09T10:58:37;100401.69;;;18.04;95.18
57562;BME280;43397;51.530;5.974;2022-09-09T11:01:10;100407.44;;;17.97;95.24
57562;BME280;43397;51.530;5.974;2022-09-09T11:03:40;100401.31;;;17.93;96.72
57562;BME280;43397;51.530;5.974;2022-09-09T11:06:10;100403.22;;;17.91;96.80
57562;BME280;43397;51.530;5.974;2022-09-09T11:08:39;100417.31;;;17.96;98.95
57562;BME280;43397;51.530;5.974;2022-09-09T11:11:09;100413.66;;;17.77;100.00
57562;BME280;43397;51.530;5.974;2022-09-09T11:13:41;100416.44;;;17.55;100.00
57562;BME280;43397;51.530;5.974;2022-09-09T11:16:17;100415.78;;;17.50;100.00
57562;BME280;43397;51.530;5.974;2022-09-09T11:18:47;100413.41;;;17.42;100.00
57562;BME280;43397;51.530;5.974;2022-09-09T11:21:18;100416.06;;;17.43;100.00
57562;BME280;43397;51.530;5.974;2022-09-09T11:23:51;100412.56;;;17.41;100.00
57562;BME280;43397;51.530;5.974;2022-09-09T11:26:26;100423.56;;;17.35;100.00
57562;BME280;43397;51.530;5.974;2022-09-09T11:29:08;100420.13;;;17.11;100.00
57562;BME280;43397;51.530;5.974;2022-09-09T11:31:44;100424.19;;;16.77;100.00
57562;BME280;43397;51.530;5.974;2022-09-09T11:34:26;100410.19;;;16.69;100.00
57562;BME280;43397;51.530;5.974;2022-09-09T11:37:11;100418.00;;;16.53;100.00
57562;BME280;43397;51.530;5.974;2022-09-09T11:40:09;100416.66;;;16.41;100.00
57562;BME280;43397;51.530;5.974;2022-09-09T11:42:40;100415.16;;;16.34;100.00
57562;BME280;43397;51.530;5.974;2022-09-09T11:45:11;100413.78;;;16.46;100.00
57562;BME280;43397;51.530;5.974;2022-09-09T11:47:37;100412.06;;;16.45;100.00
57562;BME280;43397;51.530;5.974;2022-09-09T11:50:27;100407.19;;;16.55;100.00
57562;BME280;43397;51.530;5.974;2022-09-09T11:53:22;100415.06;;;16.59;100.00
57562;BME280;43397;51.530;5.974;2022-09-09T11:55:59;100414.44;;;16.53;100.00
57562;BME280;43397;51.530;5.974;2022-09-09T11:58:27;100408.13;;;16.54;100.00
57562;BME280;43397;51.530;5.974;2022-09-09T12:00:55;100417.47;;;16.65;100.00
57562;BME280;43397;51.530;5.974;2022-09-09T12:03:41;100415.13;;;16.58;100.00
57562;BME280;43397;51.530;5.974;2022-09-09T12:06:15;100420.97;;;16.67;100.00
57562;BME280;43397;51.530;5.974;2022-09-09T12:08:45;100417.34;;;16.92;100.00
57562;BME280;43397;51.530;5.974;2022-09-09T12:11:12;100428.22;;;17.52;100.00
57562;BME280;43397;51.530;5.974;2022-09-09T12:13:52;100417.31;;;17.96;100.00
57562;BME280;43397;51.530;5.974;2022-09-09T12:16:29;100410.44;;;18.47;100.00
57562;BME280;43397;51.530;5.974;2022-09-09T12:19:03;100408.91;;;18.23;100.00
57562;BME280;43397;51.530;5.974;2022-09-09T12:21:34;100409.41;;;18.12;100.00
57562;BME280;43397;51.530;5.974;2022-09-09T12:24:04;100414.34;;;17.83;100.00
57562;BME280;43397;51.530;5.974;2022-09-09T12:26:37;100414.91;;;17.69;100.00
57562;BME280;43397;51.530;5.974;2022-09-09T12:29:13;100413.38;;;17.64;100.00
57562;BME280;43397;51.530;5.974;2022-09-09T12:31:45;100414.84;;;17.51;100.00
57562;BME280;43397;51.530;5.974;2022-09-09T12:34:16;100406.19;;;17.64;100.00
57562;BME280;43397;51.530;5.974;2022-09-09T12:36:50;100408.00;;;17.64;100.00
57562;BME280;43397;51.530;5.974;2022-09-09T12:39:29;100407.53;;;17.54;100.00
57562;BME280;43397;51.530;5.974;2022-09-09T12:41:57;100398.25;;;17.41;100.00
57562;BME280;43397;51.530;5.974;2022-09-09T12:44:23;100404.22;;;17.47;100.00
57562;BME280;43397;51.530;5.974;2022-09-09T12:46:51;100395.03;;;17.53;100.00
57562;BME280;43397;51.530;5.974;2022-09-09T12:49:27;100400.88;;;17.42;100.00
57562;BME280;43397;51.530;5.974;2022-09-09T12:51:55;100397.97;;;17.67;100.00
57562;BME280;43397;51.530;5.974;2022-09-09T12:54:21;100387.97;;;17.71;100.00